Time;durP1;ratioP1;P1;durP2;ratioP2;P2;SDS_P1;SDS_P2;PMS_P1;PMS_P2;Temp;Humidity;BMP_temperature;BMP_pressure;BME280_temperature;BME280_humidity;BME280_pressure;Samples;Min_cycle;Max_cycle;Signal;HPM_P1;HPM_P2
2023/11/11 00:01:20;;;;;;;;;;;;;;;8.24;61.62;96413.41;5112084;27;20305;-70
2023/11/11 00:04:08;;;;;;;;;;;;;;;8.14;61.80;96412.69;5106478;27;20453;-70
2023/11/11 00:06:57;;;;;;;;;;;;;;;8.17;61.63;96413.16;5114814;27;19924;-71
2023/11/11 00:09:50;;;;;;;;;;;;;;;8.23;61.79;96411.81;5100537;28;20005;-71
2023/11/11 00:12:38;;;;;;;;;;;;;;;8.14;61.61;96409.19;5106664;27;19920;-71
2023/11/11 00:15:27;;;;;;;;;;;;;;;8.30;61.31;96404.75;5112666;27;20002;-72
2023/11/11 00:18:16;;;;;;;;;;;;;;;8.38;61.18;96400.41;5101725;27;19920;-71
2023/11/11 00:21:04;;;;;;;;;;;;;;;8.47;61.02;96387.59;5121126;27;20006;-70
2023/11/11 00:23:52;;;;;;;;;;;;;;;8.36;60.87;96392.63;5108590;27;19924;-70
2023/11/11 00:26:43;;;;;;;;;;;;;;;8.24;61.43;96387.13;5107449;27;20345;-70
2023/11/11 00:29:35;;;;;;;;;;;;;;;8.05;62.17;96386.84;5107708;28;19926;-71
2023/11/11 00:32:24;;;;;;;;;;;;;;;8.25;61.79;96380.59;5114122;27;19927;-71
2023/11/11 00:35:11;;;;;;;;;;;;;;;7.79;63.26;96377.03;5111068;27;19924;-71
2023/11/11 00:38:00;;;;;;;;;;;;;;;8.06;62.22;96378.41;5125951;27;19920;-70
2023/11/11 00:40:48;;;;;;;;;;;;;;;8.11;62.20;96366.59;5112323;27;20273;-71
2023/11/11 00:43:38;;;;;;;;;;;;;;;8.06;62.33;96374.91;5114402;27;20018;-71
2023/11/11 00:46:26;;;;;;;;;;;;;;;7.94;62.32;96372.94;5096321;27;19920;-70
2023/11/11 00:49:14;;;;;;;;;;;;;;;8.06;62.16;96359.47;5094696;28;19924;-70
2023/11/11 00:52:02;;;;;;;;;;;;;;;8.28;61.73;96373.75;5109324;27;20289;-71
2023/11/11 00:54:50;;;;;;;;;;;;;;;8.31;61.70;96368.47;5118832;27;20391;-71
2023/11/11 00:57:39;;;;;;;;;;;;;;;8.23;61.81;96366.63;5123663;27;20327;-71
2023/11/11 01:00:28;;;;;;;;;;;;;;;8.13;61.58;96365.13;5122233;27;20019;-71
2023/11/11 01:03:16;;;;;;;;;;;;;;;8.13;62.26;96356.22;5103446;27;19955;-70
2023/11/11 01:06:06;;;;;;;;;;;;;;;8.27;61.85;96354.03;5096267;27;20430;-71
2023/11/11 01:08:54;;;;;;;;;;;;;;;8.21;62.25;96352.66;5107657;27;19981;-70
2023/11/11 01:11:42;;;;;;;;;;;;;;;8.05;62.20;96344.38;5087903;27;19928;-71
2023/11/11 01:14:34;;;;;;;;;;;;;;;7.95;62.80;96341.28;5109195;27;20369;-71
2023/11/11 01:17:24;;;;;;;;;;;;;;;8.21;61.71;96339.13;5095453;28;19923;-70
2023/11/11 01:20:13;;;;;;;;;;;;;;;8.39;61.63;96340.53;5111477;27;19946;-70
2023/11/11 01:23:01;;;;;;;;;;;;;;;8.46;60.98;96337.28;5102839;27;19932;-71
2023/11/11 01:25:51;;;;;;;;;;;;;;;8.54;60.79;96336.41;5106358;27;20420;-71
2023/11/11 01:28:39;;;;;;;;;;;;;;;8.57;60.92;96334.94;5092932;28;19927;-71
2023/11/11 01:31:28;;;;;;;;;;;;;;;8.59;61.61;96329.97;5126424;27;19931;-73
2023/11/11 01:34:19;;;;;;;;;;;;;;;8.51;61.76;96325.44;5087697;27;21093;-70
2023/11/11 01:37:08;;;;;;;;;;;;;;;8.47;62.29;96319.94;5085717;28;19919;-71
2023/11/11 01:39:56;;;;;;;;;;;;;;;8.48;62.54;96305.28;5101726;27;20475;-71
2023/11/11 01:42:45;;;;;;;;;;;;;;;8.55;63.52;96310.91;5114617;27;20296;-71
2023/11/11 01:45:33;;;;;;;;;;;;;;;8.31;64.83;96308.13;5110104;27;19927;-71
2023/11/11 01:48:23;;;;;;;;;;;;;;;8.48;64.01;96309.91;5092262;27;19920;-71
2023/11/11 01:51:14;;;;;;;;;;;;;;;8.48;63.83;96305.28;5101972;27;20083;-70
2023/11/11 01:54:02;;;;;;;;;;;;;;;8.12;64.53;96295.13;5097199;28;19977;-71
2023/11/11 01:56:50;;;;;;;;;;;;;;;8.18;64.81;96299.19;5090996;27;19919;-70
2023/11/11 01:59:39;;;;;;;;;;;;;;;8.24;64.41;96295.16;5099161;27;20156;-70
2023/11/11 02:02:27;;;;;;;;;;;;;;;8.26;64.78;96297.53;5115335;27;19927;-71
2023/11/11 02:05:16;;;;;;;;;;;;;;;8.23;64.95;96299.00;5103690;27;19927;-71
2023/11/11 02:08:06;;;;;;;;;;;;;;;8.23;65.77;96292.78;5082129;28;20499;-72
2023/11/11 02:10:55;;;;;;;;;;;;;;;8.14;65.74;96287.47;5089287;28;19920;-71
2023/11/11 02:13:43;;;;;;;;;;;;;;;8.28;66.16;96295.28;5094078;28;19924;-71
2023/11/11 02:16:33;;;;;;;;;;;;;;;8.15;66.75;96291.78;5092243;27;19943;-70
2023/11/11 02:19:21;;;;;;;;;;;;;;;7.94;66.27;96291.81;5103941;27;20204;-71
2023/11/11 02:22:10;;;;;;;;;;;;;;;8.12;66.32;96284.31;5089664;28;19920;-70
2023/11/11 02:25:00;;;;;;;;;;;;;;;8.04;66.35;96286.00;5090537;28;19973;-70
2023/11/11 02:27:48;;;;;;;;;;;;;;;8.19;66.15;96276.44;5103428;27;19924;-71
2023/11/11 02:30:36;;;;;;;;;;;;;;;7.77;68.06;96275.75;5077156;28;20011;-70
2023/11/11 02:33:25;;;;;;;;;;;;;;;7.81;67.22;96271.25;5076715;28;20106;-71
2023/11/11 02:36:13;;;;;;;;;;;;;;;7.91;67.85;96270.06;5078714;28;20022;-71
2023/11/11 02:39:01;;;;;;;;;;;;;;;8.04;67.68;96269.78;5070464;28;20390;-70
2023/11/11 02:41:52;;;;;;;;;;;;;;;7.90;68.01;96263.09;5087203;28;19990;-71
2023/11/11 02:44:40;;;;;;;;;;;;;;;8.09;68.59;96257.94;5073749;28;19921;-71
2023/11/11 02:47:28;;;;;;;;;;;;;;;8.05;68.65;96247.00;5091792;27;20015;-72
2023/11/11 02:50:16;;;;;;;;;;;;;;;7.73;69.45;96247.81;5081461;28;19920;-70
2023/11/11 02:53:07;;;;;;;;;;;;;;;7.81;69.65;96242.31;5083823;28;20312;-71
2023/11/11 02:55:56;;;;;;;;;;;;;;;7.83;69.91;96242.78;5098606;27;19955;-71
2023/11/11 02:58:46;;;;;;;;;;;;;;;7.87;69.34;96240.97;5073234;28;19920;-70
2023/11/11 03:01:37;;;;;;;;;;;;;;;7.92;68.90;96247.31;5078603;28;19927;-71
2023/11/11 03:04:25;;;;;;;;;;;;;;;8.10;68.75;96240.59;5099455;27;19974;-72
2023/11/11 03:07:13;;;;;;;;;;;;;;;7.89;68.53;96235.25;5101175;27;19923;-71
2023/11/11 03:10:04;;;;;;;;;;;;;;;7.56;69.70;96233.34;5109435;27;19964;-70
2023/11/11 03:12:52;;;;;;;;;;;;;;;7.80;69.67;96231.84;5080756;28;19920;-71
2023/11/11 03:15:41;;;;;;;;;;;;;;;7.44;70.01;96230.59;5077280;28;19920;-71
2023/11/11 03:18:29;;;;;;;;;;;;;;;7.78;69.61;96234.09;5079878;28;19921;-71
2023/11/11 03:21:20;;;;;;;;;;;;;;;7.46;69.99;96232.97;5082515;28;19926;-71
2023/11/11 03:24:09;;;;;;;;;;;;;;;7.74;69.89;96228.56;5085194;28;20055;-71
2023/11/11 03:26:57;;;;;;;;;;;;;;;7.83;69.85;96221.16;5074295;28;19937;-70
2023/11/11 03:29:45;;;;;;;;;;;;;;;7.99;69.19;96234.00;5067597;28;20020;-72
2023/11/11 03:32:34;;;;;;;;;;;;;;;7.80;69.72;96227.22;5087109;28;20050;-70
2023/11/11 03:35:22;;;;;;;;;;;;;;;8.02;68.78;96212.50;5074749;28;20015;-70
2023/11/11 03:38:10;;;;;;;;;;;;;;;7.94;69.52;96218.81;5084349;28;19924;-71
2023/11/11 03:40:58;;;;;;;;;;;;;;;7.98;69.14;96221.63;5089460;28;19934;-72
2023/11/11 03:43:47;;;;;;;;;;;;;;;8.00;69.78;96203.16;5098177;28;19928;-70
2023/11/11 03:46:35;;;;;;;;;;;;;;;8.02;69.50;96207.09;5073464;28;19953;-70
2023/11/11 03:49:24;;;;;;;;;;;;;;;8.16;68.57;96197.88;5082945;28;20011;-71
2023/11/11 03:52:12;;;;;;;;;;;;;;;8.15;68.38;96205.22;5070394;28;19943;-71
2023/11/11 03:55:00;;;;;;;;;;;;;;;8.22;68.42;96204.66;5068955;28;20362;-70
2023/11/11 03:57:48;;;;;;;;;;;;;;;8.17;69.13;96202.94;5081858;28;19940;-70
2023/11/11 04:00:36;;;;;;;;;;;;;;;7.90;70.21;96209.00;5064807;28;19920;-70
2023/11/11 04:03:24;;;;;;;;;;;;;;;8.12;69.64;96206.66;5078160;28;20388;-70
2023/11/11 04:06:14;;;;;;;;;;;;;;;8.00;69.82;96203.16;5064335;28;20286;-71
2023/11/11 04:09:02;;;;;;;;;;;;;;;7.94;70.47;96221.53;5084105;28;19951;-71
2023/11/11 04:11:50;;;;;;;;;;;;;;;7.85;70.76;96218.91;5086919;28;20286;-71
2023/11/11 04:14:39;;;;;;;;;;;;;;;7.83;70.50;96215.75;5073891;28;19920;-71
2023/11/11 04:17:28;;;;;;;;;;;;;;;7.97;70.45;96220.84;5072042;28;20246;-71
2023/11/11 04:20:17;;;;;;;;;;;;;;;7.93;70.24;96219.13;5075650;28;19920;-70
2023/11/11 04:23:06;;;;;;;;;;;;;;;7.82;70.23;96224.97;5075355;28;19924;-70
2023/11/11 04:25:56;;;;;;;;;;;;;;;7.54;71.16;96211.25;5063332;28;20022;-70
2023/11/11 04:28:44;;;;;;;;;;;;;;;7.68;71.79;96213.69;5064087;28;19921;-71
2023/11/11 04:31:32;;;;;;;;;;;;;;;7.71;70.89;96220.31;5041873;28;19931;-70
2023/11/11 04:34:21;;;;;;;;;;;;;;;7.88;70.77;96223.66;5085255;28;20393;-71
2023/11/11 04:37:09;;;;;;;;;;;;;;;7.83;71.14;96231.97;5061846;28;19955;-70
2023/11/11 04:39:59;;;;;;;;;;;;;;;7.84;70.55;96228.16;5066978;28;19920;-71
2023/11/11 04:42:47;;;;;;;;;;;;;;;7.33;71.34;96246.41;5060413;28;19925;-71
2023/11/11 04:45:35;;;;;;;;;;;;;;;7.84;70.65;96244.38;5071817;28;19967;-71
2023/11/11 04:48:23;;;;;;;;;;;;;;;7.78;70.28;96251.09;5060100;28;20007;-71
2023/11/11 04:51:12;;;;;;;;;;;;;;;7.84;69.50;96249.78;5057050;28;19928;-70
2023/11/11 04:54:00;;;;;;;;;;;;;;;7.87;69.00;96256.41;5071348;28;19927;-71
2023/11/11 04:56:49;;;;;;;;;;;;;;;7.68;69.02;96256.94;5069679;28;20370;-71
2023/11/11 04:59:37;;;;;;;;;;;;;;;7.69;69.22;96260.41;5064421;28;19975;-70
2023/11/11 05:02:28;;;;;;;;;;;;;;;7.65;70.36;96265.69;5069132;28;20007;-70
2023/11/11 05:05:16;;;;;;;;;;;;;;;7.25;71.93;96274.31;5069968;28;19927;-70
2023/11/11 05:08:07;;;;;;;;;;;;;;;7.61;70.94;96272.88;5064645;28;20281;-71
2023/11/11 05:10:56;;;;;;;;;;;;;;;7.75;71.05;96273.38;5068790;28;20366;-71
2023/11/11 05:13:46;;;;;;;;;;;;;;;7.68;71.16;96273.16;5062018;28;19967;-71
2023/11/11 05:16:39;;;;;;;;;;;;;;;7.93;70.18;96278.63;5056176;28;20266;-71
2023/11/11 05:19:28;;;;;;;;;;;;;;;7.75;69.70;96286.13;5057319;28;22226;-70
2023/11/11 05:22:16;;;;;;;;;;;;;;;7.90;69.66;96290.13;5075897;28;19924;-70
2023/11/11 05:25:04;;;;;;;;;;;;;;;7.57;69.95;96301.72;5100093;27;20022;-71
2023/11/11 05:27:52;;;;;;;;;;;;;;;7.14;71.33;96297.41;5098332;27;20831;-70
2023/11/11 05:30:41;;;;;;;;;;;;;;;7.07;71.24;96303.31;5104582;27;19927;-70
2023/11/11 05:33:29;;;;;;;;;;;;;;;6.84;71.79;96315.53;5098371;27;19967;-70
2023/11/11 05:36:19;;;;;;;;;;;;;;;6.77;72.23;96323.38;5101247;27;19927;-70
2023/11/11 05:39:09;;;;;;;;;;;;;;;6.59;72.81;96333.44;5103032;27;20335;-70
2023/11/11 05:41:58;;;;;;;;;;;;;;;6.81;72.59;96333.16;5104622;27;19926;-71
2023/11/11 05:44:46;;;;;;;;;;;;;;;6.71;72.37;96352.44;5098205;27;20061;-71
2023/11/11 05:47:38;;;;;;;;;;;;;;;6.97;72.14;96362.31;5103209;27;20020;-71
2023/11/11 05:50:26;;;;;;;;;;;;;;;6.92;71.23;96359.78;5120041;27;20372;-70
2023/11/11 05:53:15;;;;;;;;;;;;;;;6.70;71.76;96379.72;5114887;27;20344;-70
2023/11/11 05:56:04;;;;;;;;;;;;;;;6.42;72.18;96384.75;5116280;27;20269;-71
2023/11/11 05:58:58;;;;;;;;;;;;;;;6.52;72.03;96389.81;5096494;27;19920;-70
2023/11/11 06:01:47;;;;;;;;;;;;;;;6.29;72.24;96400.81;5097132;27;19934;-70
2023/11/11 06:04:36;;;;;;;;;;;;;;;6.26;72.28;96398.75;5099254;28;19999;-70
2023/11/11 06:07:24;;;;;;;;;;;;;;;6.33;72.18;96416.34;5099216;27;20277;-70
2023/11/11 06:10:12;;;;;;;;;;;;;;;6.47;72.53;96414.25;5109173;27;19927;-70
2023/11/11 06:13:00;;;;;;;;;;;;;;;6.18;73.32;96442.69;5109499;27;20323;-71
2023/11/11 06:15:48;;;;;;;;;;;;;;;5.86;74.82;96437.75;5103436;27;20006;-70
2023/11/11 06:18:37;;;;;;;;;;;;;;;5.98;74.67;96454.91;5107618;27;20562;-71
2023/11/11 06:21:26;;;;;;;;;;;;;;;6.10;74.47;96458.88;5084112;28;19927;-70
2023/11/11 06:24:15;;;;;;;;;;;;;;;6.18;73.59;96463.47;5086886;28;19928;-70
2023/11/11 06:27:04;;;;;;;;;;;;;;;6.03;74.18;96478.22;5093420;28;19985;-70
2023/11/11 06:29:52;;;;;;;;;;;;;;;6.01;74.01;96472.34;5086855;27;19940;-70
2023/11/11 06:32:42;;;;;;;;;;;;;;;5.85;74.37;96474.69;5085036;28;20429;-70
2023/11/11 06:35:32;;;;;;;;;;;;;;;5.89;74.74;96491.81;5086652;28;19928;-72
2023/11/11 06:38:21;;;;;;;;;;;;;;;6.14;73.99;96500.28;5096400;28;19943;-70
2023/11/11 06:41:09;;;;;;;;;;;;;;;5.88;74.60;96519.88;5099201;28;19998;-70
2023/11/11 06:43:58;;;;;;;;;;;;;;;6.12;74.77;96510.56;5088328;28;20413;-70
2023/11/11 06:46:45;;;;;;;;;;;;;;;6.26;74.14;96514.72;5084893;28;19927;-70
2023/11/11 06:49:33;;;;;;;;;;;;;;;6.26;73.28;96528.19;5085332;28;20377;-70
2023/11/11 06:52:21;;;;;;;;;;;;;;;6.33;73.43;96551.19;5074910;28;19933;-70
2023/11/11 06:55:11;;;;;;;;;;;;;;;6.49;73.72;96536.13;5079485;28;19920;-70
2023/11/11 06:58:00;;;;;;;;;;;;;;;6.45;73.79;96554.06;5081817;28;19920;-70
2023/11/11 07:00:50;;;;;;;;;;;;;;;6.40;73.77;96559.63;5078267;28;19927;-70
2023/11/11 07:03:39;;;;;;;;;;;;;;;6.50;73.22;96554.72;5086470;27;20551;-69
2023/11/11 07:06:27;;;;;;;;;;;;;;;6.68;73.14;96566.28;5083020;28;19924;-70
2023/11/11 07:09:15;;;;;;;;;;;;;;;6.51;73.49;96585.19;5090578;28;19920;-70
2023/11/11 07:12:05;;;;;;;;;;;;;;;6.43;73.18;96602.13;5075296;28;20040;-69
2023/11/11 07:14:53;;;;;;;;;;;;;;;6.33;74.19;96597.03;5089722;28;20459;-70
2023/11/11 07:17:41;;;;;;;;;;;;;;;6.38;74.04;96605.78;5077989;28;20080;-70
2023/11/11 07:20:30;;;;;;;;;;;;;;;6.56;73.58;96607.41;5083464;28;20440;-70
2023/11/11 07:23:18;;;;;;;;;;;;;;;6.43;74.29;96612.94;5109914;27;19920;-70
2023/11/11 07:26:11;;;;;;;;;;;;;;;6.63;73.81;96625.81;5097855;28;21291;-70
2023/11/11 07:29:03;;;;;;;;;;;;;;;6.42;74.94;96632.94;5104567;28;20008;-70
2023/11/11 07:31:51;;;;;;;;;;;;;;;6.51;74.85;96634.53;5097562;28;19920;-71
2023/11/11 07:34:39;;;;;;;;;;;;;;;6.54;74.66;96650.06;5100860;28;19939;-70
2023/11/11 07:37:27;;;;;;;;;;;;;;;6.48;75.33;96658.66;5104099;28;19931;-70
2023/11/11 07:40:15;;;;;;;;;;;;;;;6.55;75.21;96665.19;5105127;28;20014;-72
2023/11/11 07:43:04;;;;;;;;;;;;;;;6.70;74.64;96661.19;5106272;28;20414;-69
2023/11/11 07:45:53;;;;;;;;;;;;;;;6.56;75.19;96680.25;5100239;28;19943;-70
2023/11/11 07:48:41;;;;;;;;;;;;;;;6.55;75.86;96672.44;5103792;28;20288;-70
2023/11/11 07:51:32;;;;;;;;;;;;;;;6.65;75.68;96672.16;5097499;28;20437;-70
2023/11/11 07:54:20;;;;;;;;;;;;;;;6.63;75.77;96677.09;5104814;28;19943;-70
2023/11/11 07:57:08;;;;;;;;;;;;;;;6.60;75.57;96696.59;5100859;28;19923;-71
2023/11/11 07:59:56;;;;;;;;;;;;;;;6.90;75.43;96694.09;5108145;28;20308;-71
2023/11/11 08:02:47;;;;;;;;;;;;;;;6.93;75.28;96702.38;5103863;28;19919;-71
2023/11/11 08:05:35;;;;;;;;;;;;;;;6.87;75.40;96709.03;5087681;28;19920;-71
2023/11/11 08:08:24;;;;;;;;;;;;;;;6.66;75.76;96714.25;5102025;28;19923;-72
2023/11/11 08:11:14;;;;;;;;;;;;;;;6.82;75.35;96714.59;5099746;28;20053;-72
2023/11/11 08:14:02;;;;;;;;;;;;;;;6.89;75.88;96723.00;5095002;28;19920;-71
2023/11/11 08:16:50;;;;;;;;;;;;;;;7.12;75.20;96710.13;5105925;27;19919;-70
2023/11/11 08:19:40;;;;;;;;;;;;;;;7.05;75.15;96720.63;5095858;27;19946;-71
2023/11/11 08:22:28;;;;;;;;;;;;;;;7.13;75.17;96721.72;5098999;28;19924;-71
2023/11/11 08:25:16;;;;;;;;;;;;;;;7.14;74.72;96734.94;5106510;28;19932;-73
2023/11/11 08:28:04;;;;;;;;;;;;;;;7.11;74.86;96734.78;5104641;27;19926;-72
2023/11/11 08:30:52;;;;;;;;;;;;;;;7.10;75.01;96750.19;5102576;27;20273;-71
2023/11/11 08:33:41;;;;;;;;;;;;;;;7.25;74.59;96754.34;5105539;27;19920;-71
2023/11/11 08:36:30;;;;;;;;;;;;;;;7.05;74.49;96750.34;5118239;27;20014;-71
2023/11/11 08:39:25;;;;;;;;;;;;;;;7.03;74.24;96766.88;5105713;27;19927;-71
2023/11/11 08:42:18;;;;;;;;;;;;;;;7.03;74.85;96764.16;5099164;27;19939;-71
2023/11/11 08:45:09;;;;;;;;;;;;;;;7.16;75.17;96759.72;5100088;28;19989;-71
2023/11/11 08:47:59;;;;;;;;;;;;;;;7.29;73.96;96774.97;5102651;27;19924;-71
2023/11/11 08:50:47;;;;;;;;;;;;;;;7.38;74.02;96774.97;5105079;27;19935;-71
2023/11/11 08:53:37;;;;;;;;;;;;;;;7.22;74.16;96785.47;5085650;28;19972;-72
2023/11/11 08:56:25;;;;;;;;;;;;;;;7.30;73.86;96789.28;5104650;27;20484;-71
2023/11/11 08:59:14;;;;;;;;;;;;;;;7.09;73.76;96787.22;5101867;27;20290;-71
2023/11/11 09:02:03;;;;;;;;;;;;;;;7.28;73.99;96803.09;5107762;27;19920;-71
2023/11/11 09:04:55;;;;;;;;;;;;;;;7.27;73.35;96798.81;5094188;27;20377;-73
2023/11/11 09:07:45;;;;;;;;;;;;;;;7.57;73.49;96791.69;5105065;28;19920;-73
2023/11/11 09:10:36;;;;;;;;;;;;;;;7.60;73.31;96792.94;5104032;27;19931;-72
2023/11/11 09:13:24;;;;;;;;;;;;;;;7.50;73.22;96817.56;5106142;27;19930;-73
2023/11/11 09:16:13;;;;;;;;;;;;;;;7.46;73.91;96813.94;5106214;27;20361;-74
2023/11/11 09:19:02;;;;;;;;;;;;;;;7.40;73.36;96829.47;5105884;27;19927;-73
2023/11/11 09:21:51;;;;;;;;;;;;;;;7.31;74.05;96816.00;5097812;27;20572;-72
2023/11/11 09:24:39;;;;;;;;;;;;;;;7.44;73.91;96825.03;5101557;27;19924;-73
2023/11/11 09:27:29;;;;;;;;;;;;;;;7.64;73.40;96823.63;5086442;28;19920;-73
2023/11/11 09:30:18;;;;;;;;;;;;;;;7.70;73.32;96824.25;5108599;27;19926;-73
2023/11/11 09:33:06;;;;;;;;;;;;;;;7.79;73.49;96825.84;5086913;28;19951;-72
2023/11/11 09:35:55;;;;;;;;;;;;;;;7.66;72.84;96832.19;5089423;27;19960;-73
2023/11/11 09:38:43;;;;;;;;;;;;;;;7.96;72.97;96829.66;5096762;28;20249;-74
2023/11/11 09:41:32;;;;;;;;;;;;;;;7.76;72.53;96836.50;5100805;27;19931;-73
2023/11/11 09:44:22;;;;;;;;;;;;;;;7.76;71.85;96837.28;5097437;28;19919;-74
2023/11/11 09:47:13;;;;;;;;;;;;;;;7.91;71.90;96849.53;5103854;27;19920;-75
2023/11/11 09:50:01;;;;;;;;;;;;;;;7.82;71.90;96851.44;5109276;27;19920;-73
2023/11/11 09:52:50;;;;;;;;;;;;;;;7.91;71.61;96864.97;5104235;27;19930;-73
2023/11/11 09:55:38;;;;;;;;;;;;;;;7.87;71.28;96857.47;5108326;27;20422;-72
2023/11/11 09:58:29;;;;;;;;;;;;;;;7.97;71.38;96858.28;5097410;27;20277;-74
2023/11/11 10:01:18;;;;;;;;;;;;;;;8.00;71.19;96852.25;5101629;27;20254;-73
2023/11/11 10:04:07;;;;;;;;;;;;;;;8.04;70.54;96864.81;5122544;27;20048;-73
2023/11/11 10:06:56;;;;;;;;;;;;;;;8.17;70.45;96860.31;5100981;27;19921;-73
2023/11/11 10:09:46;;;;;;;;;;;;;;;8.38;70.32;96863.19;5097191;28;19939;-72
2023/11/11 10:12:35;;;;;;;;;;;;;;;8.31;70.13;96868.25;5090414;28;19920;-73
2023/11/11 10:15:24;;;;;;;;;;;;;;;8.37;70.14;96873.22;5109387;27;19920;-73
2023/11/11 10:18:14;;;;;;;;;;;;;;;8.19;69.31;96877.03;5102779;28;19920;-73
2023/11/11 10:21:03;;;;;;;;;;;;;;;8.01;70.31;96870.06;5118659;27;19994;-73
2023/11/11 10:23:52;;;;;;;;;;;;;;;8.29;69.72;96876.69;5085029;28;19920;-72
2023/11/11 10:26:40;;;;;;;;;;;;;;;8.21;70.10;96884.84;5105839;27;19924;-72
2023/11/11 10:29:30;;;;;;;;;;;;;;;8.13;70.04;96889.13;5114058;27;19920;-72
2023/11/11 10:32:19;;;;;;;;;;;;;;;8.19;69.96;96882.44;5097076;28;20383;-72
2023/11/11 10:35:08;;;;;;;;;;;;;;;8.29;69.69;96878.59;5084454;27;19950;-71
2023/11/11 10:37:57;;;;;;;;;;;;;;;8.37;69.10;96885.94;5105110;27;19970;-72
2023/11/11 10:40:44;;;;;;;;;;;;;;;8.44;69.88;96888.16;5104202;27;19924;-73
2023/11/11 10:43:32;;;;;;;;;;;;;;;8.36;69.43;96881.63;5095335;28;19920;-72
2023/11/11 10:46:20;;;;;;;;;;;;;;;8.16;68.82;96880.38;5103104;27;19943;-72
2023/11/11 10:49:09;;;;;;;;;;;;;;;8.15;68.74;96881.50;5099398;27;19920;-71
2023/11/11 10:52:00;;;;;;;;;;;;;;;8.22;68.47;96870.19;5095996;27;20529;-72
2023/11/11 10:54:48;;;;;;;;;;;;;;;8.34;68.40;96865.69;5093868;28;20312;-73
2023/11/11 10:57:38;;;;;;;;;;;;;;;8.44;68.36;96867.28;5081345;27;19964;-72
2023/11/11 11:00:26;;;;;;;;;;;;;;;8.57;68.28;96870.91;5100989;27;20046;-72
2023/11/11 11:03:15;;;;;;;;;;;;;;;8.38;67.20;96869.38;5092472;27;19919;-71
2023/11/11 11:06:10;;;;;;;;;;;;;;;8.45;68.25;96878.91;5107312;27;19926;-73
2023/11/11 11:09:01;;;;;;;;;;;;;;;8.36;68.79;96870.81;5081563;28;20270;-72
2023/11/11 11:11:52;;;;;;;;;;;;;;;8.33;68.56;96883.06;5101084;28;19997;-73
2023/11/11 11:14:45;;;;;;;;;;;;;;;8.22;68.07;96881.81;5098443;28;19969;-71
2023/11/11 11:17:34;;;;;;;;;;;;;;;8.37;67.94;96884.03;5102881;27;19931;-71
2023/11/11 11:20:24;;;;;;;;;;;;;;;8.09;68.17;96893.56;5095582;28;20374;-73
2023/11/11 11:23:14;;;;;;;;;;;;;;;8.17;68.35;96892.00;5077107;28;19950;-72
2023/11/11 11:26:04;;;;;;;;;;;;;;;8.08;67.90;96892.00;5070842;28;20011;-71
2023/11/11 11:29:07;;;;;;;;;;;;;;;8.00;68.55;96884.69;5079550;28;19921;-72
2023/11/11 11:32:06;;;;;;;;;;;;;;;8.20;67.59;96899.47;5067334;28;20085;-71
2023/11/11 11:35:12;;;;;;;;;;;;;;;8.12;67.59;96898.38;5077079;28;20011;-72
2023/11/11 11:38:00;;;;;;;;;;;;;;;7.95;67.28;96907.28;5058473;28;20072;-72
2023/11/11 11:40:49;;;;;;;;;;;;;;;7.93;66.76;96889.78;5065456;28;20385;-71
2023/11/11 11:43:39;;;;;;;;;;;;;;;7.76;67.09;96901.38;5065390;28;19920;-72
2023/11/11 11:46:27;;;;;;;;;;;;;;;7.80;66.82;96908.53;5052652;28;19924;-73
2023/11/11 11:49:15;;;;;;;;;;;;;;;7.76;65.65;96909.50;5076450;28;20274;-71
2023/11/11 11:52:03;;;;;;;;;;;;;;;7.84;65.10;96923.03;5053882;28;20035;-72
2023/11/11 11:54:51;;;;;;;;;;;;;;;7.78;64.12;96920.81;5045803;28;19955;-72
2023/11/11 11:57:52;;;;;;;;;;;;;;;7.78;63.96;96918.91;5072716;28;20414;-72
2023/11/11 12:00:41;;;;;;;;;;;;;;;7.93;62.86;96931.13;5049356;28;20366;-72
2023/11/11 12:03:29;;;;;;;;;;;;;;;7.88;62.74;96932.09;5040168;28;19933;-71
2023/11/11 12:06:22;;;;;;;;;;;;;;;7.80;64.39;96930.19;5049988;28;19950;-71
2023/11/11 12:09:12;;;;;;;;;;;;;;;7.91;63.28;96937.97;5077458;28;19928;-71
2023/11/11 12:12:04;;;;;;;;;;;;;;;8.01;63.44;96937.66;5064642;28;20400;-72
2023/11/11 12:14:52;;;;;;;;;;;;;;;8.06;63.28;96942.94;5055568;28;20393;-72
2023/11/11 12:17:42;;;;;;;;;;;;;;;8.29;63.37;96936.22;5061511;28;20323;-72
2023/11/11 12:20:38;;;;;;;;;;;;;;;8.34;62.71;96941.47;5062691;28;19933;-72
2023/11/11 12:23:26;;;;;;;;;;;;;;;8.39;63.77;96946.75;5085317;28;19932;-72
2023/11/11 12:26:15;;;;;;;;;;;;;;;8.37;63.24;96949.00;5084615;28;20384;-71
2023/11/11 12:29:03;;;;;;;;;;;;;;;8.38;62.94;96942.47;5076642;28;20353;-72
2023/11/11 12:31:52;;;;;;;;;;;;;;;8.35;62.51;96948.47;5087055;28;19920;-71
2023/11/11 12:34:41;;;;;;;;;;;;;;;8.65;62.20;96943.22;5082872;28;19931;-71
2023/11/11 12:37:30;;;;;;;;;;;;;;;8.59;60.88;96950.72;5088082;28;20345;-72
2023/11/11 12:40:18;;;;;;;;;;;;;;;8.71;61.21;96947.34;5088339;28;19920;-74
2023/11/11 12:43:06;;;;;;;;;;;;;;;8.70;60.36;96956.56;5080872;28;20567;-72
2023/11/11 12:45:55;;;;;;;;;;;;;;;8.44;59.25;96963.94;5076032;28;20419;-72
2023/11/11 12:48:47;;;;;;;;;;;;;;;8.54;59.15;96958.19;5067983;28;19935;-72
2023/11/11 12:51:37;;;;;;;;;;;;;;;8.04;58.26;96983.81;5087213;28;19926;-72
2023/11/11 12:54:30;;;;;;;;;;;;;;;7.67;61.31;96998.72;5085411;28;19932;-72
2023/11/11 12:57:25;;;;;;;;;;;;;;;7.75;62.71;96995.22;5094274;27;20425;-71
2023/11/11 13:00:15;;;;;;;;;;;;;;;7.68;63.84;96986.78;5103036;27;20010;-71
2023/11/11 13:03:04;;;;;;;;;;;;;;;7.65;62.13;96984.69;5103847;27;19964;-72
2023/11/11 13:05:53;;;;;;;;;;;;;;;7.50;63.34;96991.34;5108909;27;19928;-74
2023/11/11 13:08:47;;;;;;;;;;;;;;;7.66;63.12;96989.00;5098653;27;19924;-72
2023/11/11 13:11:36;;;;;;;;;;;;;;;7.73;62.21;96991.25;5103267;27;20437;-72
2023/11/11 13:14:24;;;;;;;;;;;;;;;7.68;62.06;96989.50;5074543;27;19927;-71
2023/11/11 13:17:13;;;;;;;;;;;;;;;7.56;62.66;96986.56;5082595;27;19924;-73
2023/11/11 13:20:03;;;;;;;;;;;;;;;7.57;62.75;96989.00;5102614;27;19946;-72
2023/11/11 13:22:51;;;;;;;;;;;;;;;7.65;62.55;96987.41;5106363;27;19926;-71
2023/11/11 13:25:41;;;;;;;;;;;;;;;7.72;62.33;96993.13;5105309;27;19953;-72
2023/11/11 13:28:29;;;;;;;;;;;;;;;7.62;62.55;96988.06;5092138;27;19932;-71
2023/11/11 13:31:17;;;;;;;;;;;;;;;7.76;62.67;96998.72;5098866;27;20026;-72
2023/11/11 13:34:10;;;;;;;;;;;;;;;7.78;62.13;96986.50;5118209;27;19923;-72
2023/11/11 13:36:58;;;;;;;;;;;;;;;7.87;62.03;96986.50;5108283;27;19919;-72
2023/11/11 13:39:51;;;;;;;;;;;;;;;7.90;61.99;96987.78;5090986;28;19920;-72
2023/11/11 13:42:43;;;;;;;;;;;;;;;8.04;60.33;96994.66;5096567;28;20289;-72
2023/11/11 13:45:34;;;;;;;;;;;;;;;8.08;59.29;96989.38;5104899;27;20453;-72
2023/11/11 13:48:22;;;;;;;;;;;;;;;8.21;59.12;96990.34;5090272;27;20003;-74
2023/11/11 13:51:10;;;;;;;;;;;;;;;8.30;59.70;96986.50;5104725;27;20387;-72
2023/11/11 13:53:58;;;;;;;;;;;;;;;8.47;58.46;96982.22;5083844;28;19920;-73
2023/11/11 13:56:46;;;;;;;;;;;;;;;8.42;57.65;96988.63;5104718;27;20006;-72
2023/11/11 13:59:37;;;;;;;;;;;;;;;8.48;56.31;96991.97;5099357;27;19927;-72
2023/11/11 14:02:25;;;;;;;;;;;;;;;8.56;56.62;96991.16;5083946;28;19924;-74
2023/11/11 14:05:13;;;;;;;;;;;;;;;8.38;56.34;96987.66;5118043;27;19923;-72
2023/11/11 14:08:02;;;;;;;;;;;;;;;8.30;55.22;97000.03;5080963;28;19926;-71
2023/11/11 14:10:50;;;;;;;;;;;;;;;8.16;56.44;96991.31;5090563;28;20006;-72
2023/11/11 14:13:39;;;;;;;;;;;;;;;8.04;56.33;96996.53;5102123;28;19926;-72
2023/11/11 14:16:28;;;;;;;;;;;;;;;8.09;56.47;97005.28;5103906;27;19920;-72
2023/11/11 14:19:16;;;;;;;;;;;;;;;8.22;56.57;96992.72;5102456;27;19920;-72
2023/11/11 14:22:05;;;;;;;;;;;;;;;8.20;56.96;96991.44;5089289;27;19920;-72
2023/11/11 14:24:53;;;;;;;;;;;;;;;8.34;56.50;97002.91;5079781;28;19920;-71
2023/11/11 14:27:43;;;;;;;;;;;;;;;8.15;56.36;97011.38;5084881;28;20017;-72
2023/11/11 14:30:31;;;;;;;;;;;;;;;8.06;55.92;97007.84;5082457;28;20393;-72
2023/11/11 14:33:21;;;;;;;;;;;;;;;7.96;56.35;97016.25;5090803;28;19920;-74
2023/11/11 14:36:10;;;;;;;;;;;;;;;7.98;56.70;97017.53;5067639;28;19920;-71
2023/11/11 14:38:57;;;;;;;;;;;;;;;7.90;56.08;97015.63;5056543;28;19921;-72
2023/11/11 14:41:47;;;;;;;;;;;;;;;7.91;56.08;97019.13;5068321;28;19927;-71
2023/11/11 14:44:35;;;;;;;;;;;;;;;7.93;56.23;97019.59;5071945;28;19940;-73
2023/11/11 14:47:24;;;;;;;;;;;;;;;7.86;56.51;97025.47;5061996;28;19933;-72
2023/11/11 14:50:14;;;;;;;;;;;;;;;8.04;56.32;97034.41;5072352;28;20281;-71
2023/11/11 14:53:02;;;;;;;;;;;;;;;7.99;56.87;97026.44;5085647;28;19920;-71